Time;durP1;ratioP1;P1;durP2;ratioP2;P2;SDS_P1;SDS_P2;PMS_P1;PMS_P2;Temp;Humidity;BMP_temperature;BMP_pressure;BME280_temperature;BME280_humidity;BME280_pressure;Samples;Min_cycle;Max_cycle;Signal;HPM_P1;HPM_P2
2022/10/05 00:01:30;;;;;;;3.50;2.90;;;13.40;99.90;;;;;;7389626;19;20154;-77
2022/10/05 00:04:07;;;;;;;7.60;3.60;;;13.50;99.90;;;;;;7391898;19;20143;-77
2022/10/05 00:06:33;;;;;;;4.22;2.90;;;13.50;99.90;;;;;;7394127;19;20264;-76
2022/10/05 00:09:00;;;;;;;6.87;3.07;;;13.20;99.90;;;;;;7390184;19;20146;-76
2022/10/05 00:11:25;;;;;;;4.53;3.10;;;13.40;99.90;;;;;;7391444;19;20151;-76
2022/10/05 00:13:51;;;;;;;6.32;3.53;;;13.50;99.90;;;;;;7392798;19;20482;-76
2022/10/05 00:16:19;;;;;;;6.57;3.80;;;13.60;99.90;;;;;;7392612;19;20138;-76
2022/10/05 00:18:50;;;;;;;7.63;4.10;;;13.70;99.90;;;;;;7391703;19;20142;-76
2022/10/05 00:21:23;;;;;;;4.38;3.45;;;13.70;99.90;;;;;;7389456;19;20142;-75
2022/10/05 00:23:49;;;;;;;6.97;4.17;;;13.70;99.90;;;;;;7390380;19;20174;-77
2022/10/05 00:26:20;;;;;;;6.77;4.60;;;13.60;99.90;;;;;;7387541;19;20159;-76
2022/10/05 00:28:46;;;;;;;9.00;4.70;;;13.70;99.90;;;;;;7391487;19;20135;-76
2022/10/05 00:31:22;;;;;;;6.93;4.43;;;13.60;99.90;;;;;;7390239;19;20146;-76
2022/10/05 00:33:48;;;;;;;5.30;4.13;;;13.60;99.90;;;;;;7389917;19;20516;-76
2022/10/05 00:36:14;;;;;;;6.00;4.10;;;13.50;99.90;;;;;;7388610;19;20143;-75
2022/10/05 00:38:42;;;;;;;10.23;4.90;;;13.50;99.90;;;;;;7387784;19;20182;-77
2022/10/05 00:41:20;;;;;;;6.30;3.87;;;13.50;99.90;;;;;;7388247;19;20138;-77
2022/10/05 00:43:58;;;;;;;5.20;3.87;;;13.30;99.90;;;;;;7391654;19;20158;-77
2022/10/05 00:46:42;;;;;;;5.80;3.90;;;13.30;99.90;;;;;;7391053;19;20556;-75
2022/10/05 00:49:36;;;;;;;6.63;4.05;;;13.40;99.90;;;;;;7391225;19;20138;-75
2022/10/05 00:52:11;;;;;;;6.77;3.93;;;13.40;99.90;;;;;;7389795;19;20142;-75
2022/10/05 00:54:45;;;;;;;5.53;4.22;;;13.50;99.90;;;;;;7391449;19;20595;-76
2022/10/05 00:57:17;;;;;;;7.03;3.97;;;13.40;99.90;;;;;;7391610;19;20591;-76
2022/10/05 01:00:02;;;;;;;6.37;4.57;;;13.40;99.90;;;;;;7389769;19;20446;-75
2022/10/05 01:02:32;;;;;;;6.30;4.37;;;13.40;99.90;;;;;;7387500;19;20137;-76
2022/10/05 01:05:36;;;;;;;7.93;4.67;;;13.40;99.90;;;;;;7391327;19;20146;-76
2022/10/05 01:08:22;;;;;;;6.70;4.00;;;13.40;99.90;;;;;;7391613;19;20729;-76
2022/10/05 01:11:04;;;;;;;5.72;4.10;;;13.30;99.90;;;;;;7388330;19;20138;-76
2022/10/05 01:13:34;;;;;;;6.20;4.37;;;13.30;99.90;;;;;;7387288;19;20146;-76
2022/10/05 01:16:39;;;;;;;5.40;4.37;;;13.30;99.90;;;;;;7390288;19;20169;-76
2022/10/05 01:19:47;;;;;;;9.40;4.80;;;13.30;99.90;;;;;;7390473;19;20150;-76
2022/10/05 01:22:37;;;;;;;5.37;4.20;;;13.30;99.90;;;;;;7387706;19;20849;-76
2022/10/05 01:25:34;;;;;;;6.57;4.65;;;13.30;99.90;;;;;;7388276;19;20651;-76
2022/10/05 01:28:14;;;;;;;8.73;4.83;;;13.30;99.90;;;;;;7389553;19;20147;-75
2022/10/05 01:31:08;;;;;;;6.33;4.23;;;13.30;99.90;;;;;;7388676;19;20162;-76
2022/10/05 01:33:56;;;;;;;6.67;4.30;;;12.80;99.90;;;;;;7396197;19;20146;-75
2022/10/05 01:36:40;;;;;;;6.47;4.23;;;12.90;99.90;;;;;;7393788;19;20147;-76
2022/10/05 01:39:31;;;;;;;8.80;4.25;;;13.00;99.90;;;;;;7397933;19;20486;-75
2022/10/05 01:42:25;;;;;;;8.20;4.17;;;13.10;99.90;;;;;;7393983;19;20165;-75
2022/10/05 01:45:29;;;;;;;4.80;4.00;;;13.00;99.90;;;;;;7394978;19;20174;-75
2022/10/05 01:48:07;;;;;;;7.23;4.10;;;12.90;99.90;;;;;;7391891;19;20530;-76
2022/10/05 01:50:55;;;;;;;8.83;4.37;;;13.00;99.90;;;;;;7397907;19;20159;-76
2022/10/05 01:53:44;;;;;;;5.43;3.90;;;13.10;99.90;;;;;;7395533;19;20159;-75
2022/10/05 01:57:05;;;;;;;6.00;3.57;;;13.20;99.90;;;;;;7394631;19;20158;-76
2022/10/05 02:00:00;;;;;;;6.07;3.40;;;13.10;99.90;;;;;;7393529;19;20150;-75
2022/10/05 02:02:30;;;;;;;5.40;3.67;;;13.00;99.90;;;;;;7391301;19;20151;-76
2022/10/05 02:05:06;;;;;;;3.40;3.07;;;12.90;99.90;;;;;;7398087;19;20161;-76
2022/10/05 02:07:44;;;;;;;4.87;3.27;;;12.90;99.90;;;;;;7396442;19;20134;-75
2022/10/05 02:10:19;;;;;;;4.40;3.33;;;13.00;99.90;;;;;;7396852;19;20202;-76
2022/10/05 02:12:47;;;;;;;6.50;3.83;;;13.00;99.90;;;;;;7396214;19;20134;-77
2022/10/05 02:15:18;;;;;;;5.47;3.80;;;13.10;99.90;;;;;;7395146;19;20173;-76
2022/10/05 02:17:56;;;;;;;4.83;3.80;;;13.10;99.90;;;;;;7392643;19;20226;-76
2022/10/05 02:20:27;;;;;;;7.53;4.07;;;13.10;99.90;;;;;;7394641;19;20146;-76
2022/10/05 02:22:57;;;;;;;5.07;4.10;;;13.00;99.90;;;;;;7394060;19;20146;-76
2022/10/05 02:25:27;;;;;;;5.60;3.30;;;13.00;99.90;;;;;;7393569;19;20262;-76
2022/10/05 02:27:56;;;;;;;4.77;3.40;;;13.00;99.90;;;;;;7395025;19;20214;-76
2022/10/05 02:30:22;;;;;;;5.53;3.77;;;13.00;99.90;;;;;;7389831;19;20600;-77
2022/10/05 02:33:00;;;;;;;8.23;4.10;;;13.00;99.90;;;;;;7393450;19;20898;-76
2022/10/05 02:35:26;;;;;;;5.73;3.70;;;13.00;99.90;;;;;;7393356;19;20149;-76
2022/10/05 02:38:14;;;;;;;4.57;3.57;;;12.90;99.90;;;;;;7396133;19;20560;-76
2022/10/05 02:40:51;;;;;;;5.07;3.60;;;12.90;99.90;;;;;;7393035;19;20145;-77
2022/10/05 02:43:39;;;;;;;5.00;3.87;;;12.80;99.90;;;;;;7394466;19;20131;-77
2022/10/05 02:46:05;;;;;;;3.97;3.47;;;12.80;99.90;;;;;;7395869;19;20139;-77
2022/10/05 02:48:54;;;;;;;5.25;3.53;;;12.70;99.90;;;;;;7393878;19;20484;-76
2022/10/05 02:51:24;;;;;;;4.67;3.40;;;12.80;99.90;;;;;;7392545;19;20146;-76
2022/10/05 02:54:17;;;;;;;4.05;3.65;;;12.50;99.90;;;;;;7392775;19;20608;-77
2022/10/05 02:56:52;;;;;;;4.67;3.47;;;12.30;99.90;;;;;;7395543;19;20139;-77
2022/10/05 02:59:43;;;;;;;4.60;3.40;;;12.40;99.90;;;;;;7392530;19;20154;-76
2022/10/05 03:02:17;;;;;;;6.93;3.33;;;12.30;99.90;;;;;;7391996;19;20723;-77
2022/10/05 03:05:04;;;;;;;3.93;3.53;;;12.20;99.90;;;;;;7394807;19;20238;-77
2022/10/05 03:07:43;;;;;;;4.70;3.70;;;12.00;99.90;;;;;;7392958;19;20605;-77
2022/10/05 03:10:31;;;;;;;5.20;3.70;;;12.10;99.90;;;;;;7393065;19;20171;-77
2022/10/05 03:13:35;;;;;;;4.63;3.27;;;12.30;99.90;;;;;;7389297;19;20612;-77
2022/10/05 03:16:10;;;;;;;3.97;3.57;;;12.50;99.90;;;;;;7393043;19;20153;-77
2022/10/05 03:18:38;;;;;;;6.60;3.80;;;12.50;99.90;;;;;;7393665;19;20134;-77
2022/10/05 03:21:17;;;;;;;4.60;3.47;;;12.60;99.90;;;;;;7393005;19;20158;-77
2022/10/05 03:23:59;;;;;;;3.47;3.17;;;12.70;99.90;;;;;;7394455;19;20138;-77
2022/10/05 03:26:35;;;;;;;4.60;3.77;;;12.30;99.90;;;;;;7390943;19;20167;-77
2022/10/05 03:29:34;;;;;;;3.50;3.20;;;12.30;99.90;;;;;;7393876;19;20149;-77
2022/10/05 03:32:05;;;;;;;5.73;3.70;;;12.50;99.90;;;;;;7391902;19;20157;-77
2022/10/05 03:34:49;;;;;;;6.90;3.97;;;12.60;99.90;;;;;;7394677;19;20134;-77
2022/10/05 03:37:44;;;;;;;6.82;3.95;;;12.70;99.90;;;;;;7394360;19;20144;-77
2022/10/05 03:40:51;;;;;;;5.30;3.20;;;12.60;99.90;;;;;;7393034;19;20169;-77
2022/10/05 03:43:44;;;;;;;3.80;3.40;;;12.60;99.90;;;;;;7388456;19;20170;-77
2022/10/05 03:46:19;;;;;;;6.43;3.60;;;12.60;99.90;;;;;;7393761;19;20178;-77
2022/10/05 03:49:15;;;;;;;3.97;3.33;;;12.30;99.90;;;;;;7393681;19;20148;-77
2022/10/05 03:51:58;;;;;;;6.97;3.83;;;12.40;99.90;;;;;;7393961;19;20142;-77
2022/10/05 03:54:38;;;;;;;4.90;3.80;;;12.50;99.90;;;;;;7392740;19;20142;-77
2022/10/05 03:57:16;;;;;;;6.60;3.70;;;12.60;99.90;;;;;;7390725;19;20221;-77
2022/10/05 04:00:14;;;;;;;4.77;3.53;;;12.70;99.90;;;;;;7390431;19;20130;-77
2022/10/05 04:03:12;;;;;;;4.53;3.60;;;12.40;99.90;;;;;;7392541;19;20162;-75
2022/10/05 04:05:52;;;;;;;4.20;3.67;;;12.50;99.90;;;;;;7389757;19;20146;-77
2022/10/05 04:08:34;;;;;;;6.23;3.70;;;12.60;99.90;;;;;;7392245;19;20636;-77
2022/10/05 04:11:14;;;;;;;4.77;3.80;;;12.60;99.90;;;;;;7392169;19;20162;-76
2022/10/05 04:13:48;;;;;;;4.83;3.50;;;12.50;99.90;;;;;;7391606;19;20134;-76
2022/10/05 04:16:18;;;;;;;7.30;4.20;;;12.60;99.90;;;;;;7392266;19;20130;-76
2022/10/05 04:19:13;;;;;;;4.70;3.77;;;12.60;99.90;;;;;;7391028;19;20126;-76
2022/10/05 04:21:50;;;;;;;6.97;3.77;;;12.60;99.90;;;;;;7390484;19;20658;-77
2022/10/05 04:24:19;;;;;;;6.47;3.77;;;12.60;99.90;;;;;;7390264;19;20160;-77
2022/10/05 04:27:04;;;;;;;5.27;3.63;;;12.60;99.90;;;;;;7391141;19;20168;-76
2022/10/05 04:29:54;;;;;;;6.87;4.10;;;12.50;99.90;;;;;;7392432;19;20859;-77
2022/10/05 04:32:26;;;;;;;4.70;3.90;;;12.50;99.90;;;;;;7392262;19;20588;-77
2022/10/05 04:35:15;;;;;;;5.93;4.27;;;12.40;99.90;;;;;;7389302;19;20134;-77
2022/10/05 04:37:59;;;;;;;4.90;3.80;;;12.50;99.90;;;;;;7393443;19;20126;-77
2022/10/05 04:41:06;;;;;;;6.57;3.60;;;12.40;99.90;;;;;;7390032;19;20147;-77
2022/10/05 04:43:56;;;;;;;5.00;3.77;;;12.50;99.90;;;;;;7391811;19;20130;-77
2022/10/05 04:46:40;;;;;;;5.07;3.83;;;12.50;99.90;;;;;;7391582;19;20134;-77
2022/10/05 04:49:24;;;;;;;7.30;4.50;;;12.60;99.90;;;;;;7390024;19;20468;-77
2022/10/05 04:52:05;;;;;;;4.23;3.70;;;12.50;99.90;;;;;;7388634;19;20134;-77
2022/10/05 04:55:15;;;;;;;4.47;3.80;;;12.50;99.90;;;;;;7390950;19;20134;-77
2022/10/05 04:58:03;;;;;;;7.10;4.20;;;12.50;99.90;;;;;;7386979;19;20157;-77
2022/10/05 05:00:50;;;;;;;6.73;4.13;;;12.50;99.90;;;;;;7391588;19;20506;-76
2022/10/05 05:03:38;;;;;;;6.20;3.93;;;12.50;99.90;;;;;;7390639;19;20130;-76
2022/10/05 05:06:13;;;;;;;6.00;3.97;;;12.50;99.90;;;;;;7390531;19;20139;-76
2022/10/05 05:08:46;;;;;;;4.93;3.87;;;12.40;99.90;;;;;;7389907;19;20193;-77
2022/10/05 05:11:25;;;;;;;6.77;3.63;;;12.50;99.90;;;;;;7388368;19;20151;-76
2022/10/05 05:14:02;;;;;;;5.63;4.23;;;12.50;99.90;;;;;;7391053;19;20499;-77
2022/10/05 05:16:46;;;;;;;6.03;4.17;;;12.40;99.90;;;;;;7387919;19;20474;-77
2022/10/05 05:19:15;;;;;;;7.50;4.47;;;12.30;99.90;;;;;;7392240;19;20156;-75
2022/10/05 05:21:49;;;;;;;5.70;4.87;;;12.30;99.90;;;;;;7390263;19;20139;-76
2022/10/05 05:24:58;;;;;;;6.73;4.40;;;12.40;99.90;;;;;;7391493;19;20134;-76
2022/10/05 05:28:16;;;;;;;6.00;4.37;;;12.20;99.90;;;;;;7386756;19;20157;-77
2022/10/05 05:31:11;;;;;;;8.20;4.50;;;12.20;99.90;;;;;;7389364;19;20234;-76
2022/10/05 05:33:42;;;;;;;7.50;4.60;;;12.20;99.90;;;;;;7387458;19;20143;-76
2022/10/05 05:36:09;;;;;;;7.23;4.53;;;12.30;99.90;;;;;;7387830;19;20245;-76
2022/10/05 05:38:42;;;;;;;6.63;4.47;;;12.20;99.90;;;;;;7387167;19;20159;-76
2022/10/05 05:41:09;;;;;;;7.67;4.40;;;12.10;99.90;;;;;;7388546;19;20143;-76
2022/10/05 05:43:47;;;;;;;6.63;4.60;;;12.10;99.90;;;;;;7387184;19;20161;-76
2022/10/05 05:46:21;;;;;;;5.13;4.37;;;12.10;99.90;;;;;;7388188;19;20141;-76
2022/10/05 05:48:48;;;;;;;6.00;4.03;;;12.10;99.90;;;;;;7387874;19;20476;-77
2022/10/05 05:51:38;;;;;;;5.53;4.13;;;12.20;99.90;;;;;;7386286;19;20127;-77
2022/10/05 05:54:28;;;;;;;8.47;4.60;;;12.10;99.90;;;;;;7387216;19;20158;-78
2022/10/05 05:57:27;;;;;;;5.90;4.20;;;12.10;99.90;;;;;;7390105;19;20611;-77
2022/10/05 06:00:17;;;;;;;6.23;4.23;;;12.10;99.90;;;;;;7388220;19;20596;-75
2022/10/05 06:02:51;;;;;;;5.33;4.40;;;12.10;99.90;;;;;;7389789;19;20139;-76
2022/10/05 06:05:27;;;;;;;6.63;4.13;;;12.10;99.90;;;;;;7388216;19;20139;-77
2022/10/05 06:07:56;;;;;;;5.10;4.20;;;12.10;99.90;;;;;;7387384;19;20157;-76
2022/10/05 06:10:37;;;;;;;7.93;4.30;;;12.10;99.90;;;;;;7382842;19;20142;-78
2022/10/05 06:13:10;;;;;;;4.80;4.30;;;12.00;99.90;;;;;;7386281;19;20167;-80
2022/10/05 06:15:48;;;;;;;6.40;4.47;;;12.00;99.90;;;;;;7387964;19;20221;-81
2022/10/05 06:18:18;;;;;;;5.57;4.30;;;12.00;99.90;;;;;;7386349;19;20163;-81
2022/10/05 06:20:59;;;;;;;9.23;4.23;;;12.00;99.90;;;;;;7395684;19;20130;-82
2022/10/05 06:23:33;;;;;;;6.40;4.50;;;12.00;99.90;;;;;;7401262;19;20138;-80
2022/10/05 06:26:28;;;;;;;8.27;4.17;;;12.00;99.90;;;;;;7400969;19;20154;-81
2022/10/05 06:29:02;;;;;;;7.40;4.50;;;12.00;99.90;;;;;;7399171;19;20154;-81
2022/10/05 06:31:52;;;;;;;7.50;4.30;;;12.00;99.90;;;;;;7398238;19;20137;-79
2022/10/05 06:34:42;;;;;;;7.53;4.67;;;12.00;99.90;;;;;;7408510;19;20589;-81
2022/10/05 06:37:35;;;;;;;6.13;4.60;;;12.00;99.90;;;;;;7399884;19;20158;-80
2022/10/05 06:40:16;;;;;;;5.27;4.27;;;12.10;99.90;;;;;;7397741;19;20185;-81
2022/10/05 06:43:09;;;;;;;9.93;4.50;;;12.10;99.90;;;;;;7396555;19;20160;-81
2022/10/05 06:46:22;;;;;;;7.87;5.07;;;12.10;99.90;;;;;;7399482;19;21028;-81
2022/10/05 06:49:07;;;;;;;5.83;4.87;;;12.10;99.90;;;;;;7397863;19;20150;-81
2022/10/05 06:51:50;;;;;;;6.57;4.90;;;12.10;99.90;;;;;;7400090;19;20131;-81
2022/10/05 06:54:44;;;;;;;7.77;4.97;;;12.10;99.90;;;;;;7397212;19;20490;-82
2022/10/05 06:57:47;;;;;;;6.27;4.37;;;12.10;99.90;;;;;;7399001;19;20190;-82
2022/10/05 07:00:19;;;;;;;5.23;3.90;;;12.10;99.90;;;;;;7398419;19;20651;-81
2022/10/05 07:03:11;;;;;;;5.80;4.33;;;12.20;99.90;;;;;;7399511;19;20182;-82
2022/10/05 07:05:51;;;;;;;7.73;4.50;;;12.30;99.90;;;;;;7400334;19;20139;-81
2022/10/05 07:08:45;;;;;;;7.20;4.77;;;12.20;99.90;;;;;;7401042;19;20146;-81
2022/10/05 07:11:44;;;;;;;5.50;4.70;;;12.30;99.90;;;;;;7400510;19;20154;-81
2022/10/05 07:14:47;;;;;;;5.83;4.70;;;12.30;99.90;;;;;;7400268;19;20150;-82
2022/10/05 07:17:31;;;;;;;7.27;4.63;;;12.40;99.90;;;;;;7397418;19;20197;-81
2022/10/05 07:20:02;;;;;;;9.70;5.37;;;12.60;99.90;;;;;;7397098;19;20155;-81
2022/10/05 07:22:43;;;;;;;8.10;4.67;;;12.50;99.90;;;;;;7397159;19;20217;-80
2022/10/05 07:25:20;;;;;;;5.73;4.07;;;12.60;99.90;;;;;;7397390;19;20139;-82
2022/10/05 07:27:53;;;;;;;7.83;4.17;;;12.80;99.90;;;;;;7399441;19;20479;-82
2022/10/05 07:30:20;;;;;;;8.07;4.60;;;12.80;99.90;;;;;;7398638;19;20970;-81
2022/10/05 07:33:10;;;;;;;7.50;4.40;;;12.80;99.90;;;;;;7398268;19;20126;-81
2022/10/05 07:38:42;;;;;;;6.10;4.97;;;12.90;99.90;;;;;;7398112;19;20135;-81
2022/10/05 07:41:21;;;;;;;8.23;5.20;;;12.90;99.90;;;;;;7394311;19;20158;-81
2022/10/05 07:43:56;;;;;;;9.03;4.60;;;12.90;99.90;;;;;;7396778;19;20134;-81
2022/10/05 07:47:00;;;;;;;5.67;4.60;;;13.00;99.90;;;;;;7396156;19;20138;-80
2022/10/05 07:49:49;;;;;;;6.47;4.40;;;13.00;99.90;;;;;;7394156;19;20177;-82
2022/10/05 07:52:30;;;;;;;5.40;4.60;;;13.00;99.90;;;;;;7395731;19;20166;-82
2022/10/05 07:55:08;;;;;;;6.40;4.73;;;13.00;99.90;;;;;;7402537;19;20137;-80
2022/10/05 07:58:01;;;;;;;5.90;4.30;;;13.10;99.90;;;;;;7402175;19;20127;-81
2022/10/05 08:01:26;;;;;;;5.57;4.07;;;13.10;99.90;;;;;;7395675;19;20131;-80
2022/10/05 08:04:02;;;;;;;6.60;4.40;;;13.20;99.90;;;;;;7394466;19;20572;-81
2022/10/05 08:06:36;;;;;;;6.07;4.63;;;13.20;99.90;;;;;;7395877;19;20146;-81
2022/10/05 08:09:16;;;;;;;6.60;4.23;;;13.20;99.90;;;;;;7397778;19;20140;-82
2022/10/05 08:12:13;;;;;;;7.67;4.43;;;13.20;99.90;;;;;;7396089;19;20611;-81
2022/10/05 08:14:50;;;;;;;5.60;4.47;;;13.30;99.90;;;;;;7401531;19;20243;-81
2022/10/05 08:17:27;;;;;;;8.13;5.00;;;13.30;99.90;;;;;;7397844;19;20167;-80
2022/10/05 08:20:27;;;;;;;8.27;5.17;;;13.30;99.90;;;;;;7396338;19;20134;-80
2022/10/05 08:23:18;;;;;;;6.80;5.07;;;13.40;99.90;;;;;;7397017;19;20134;-82
2022/10/05 08:25:53;;;;;;;7.20;4.83;;;13.50;99.90;;;;;;7397875;19;20155;-81
2022/10/05 08:28:27;;;;;;;6.93;4.93;;;13.50;99.90;;;;;;7396387;19;20274;-82
2022/10/05 08:31:07;;;;;;;8.33;5.73;;;13.60;99.90;;;;;;7398973;19;20134;-80
2022/10/05 08:33:57;;;;;;;11.27;6.10;;;13.70;99.90;;;;;;7396346;19;20558;-81
2022/10/05 08:36:46;;;;;;;10.17;6.07;;;13.70;99.90;;;;;;7391718;19;20206;-81
2022/10/05 08:39:19;;;;;;;8.07;6.00;;;13.70;99.90;;;;;;7394662;19;20143;-81
2022/10/05 08:42:50;;;;;;;12.10;6.13;;;13.80;99.90;;;;;;7392825;19;20150;-81
2022/10/05 08:45:35;;;;;;;10.30;6.40;;;13.90;99.90;;;;;;7392743;19;20643;-80
2022/10/05 08:48:27;;;;;;;9.47;6.00;;;13.90;99.90;;;;;;7391306;19;20260;-82
2022/10/05 08:51:26;;;;;;;8.87;6.43;;;14.00;99.90;;;;;;7392186;19;20929;-82
2022/10/05 08:54:25;;;;;;;9.23;6.28;;;14.00;99.90;;;;;;7395964;19;20643;-82
2022/10/05 08:57:28;;;;;;;8.43;5.80;;;14.10;99.90;;;;;;7396623;19;20694;-82
2022/10/05 08:59:57;;;;;;;8.17;5.53;;;14.30;99.90;;;;;;7395649;19;20130;-82
2022/10/05 09:03:01;;;;;;;6.37;4.77;;;14.40;99.90;;;;;;7393558;19;20146;-82
2022/10/05 09:05:37;;;;;;;6.33;4.90;;;14.60;99.90;;;;;;7395336;19;20590;-81
2022/10/05 09:08:19;;;;;;;6.77;5.17;;;14.70;99.90;;;;;;7395591;19;20473;-82
2022/10/05 09:11:25;;;;;;;9.13;5.37;;;14.70;99.90;;;;;;7395089;19;20789;-81
2022/10/05 09:13:58;;;;;;;9.35;5.63;;;14.90;99.90;;;;;;7394674;19;20218;-80
2022/10/05 09:16:30;;;;;;;7.93;5.10;;;15.00;99.90;;;;;;7397115;19;20260;-80
2022/10/05 09:19:01;;;;;;;5.43;4.90;;;15.10;99.90;;;;;;7395346;19;20142;-79
2022/10/05 09:21:43;;;;;;;7.63;5.07;;;15.40;99.90;;;;;;7395076;19;20614;-80
2022/10/05 09:24:08;;;;;;;6.88;4.90;;;15.40;99.90;;;;;;7396602;19;20462;-80
2022/10/05 09:26:42;;;;;;;8.40;5.33;;;15.50;99.90;;;;;;7397387;19;20153;-79
2022/10/05 09:29:38;;;;;;;8.90;5.10;;;15.70;99.90;;;;;;7396027;19;20145;-80
2022/10/05 09:32:43;;;;;;;6.68;4.72;;;15.70;99.90;;;;;;7394411;19;20256;-81
2022/10/05 09:35:21;;;;;;;8.85;5.10;;;15.70;99.90;;;;;;7393311;19;20131;-80
2022/10/05 09:38:05;;;;;;;7.28;4.75;;;15.80;99.90;;;;;;7395257;19;20476;-80
2022/10/05 09:40:52;;;;;;;7.37;4.40;;;15.90;99.90;;;;;;7394148;19;20878;-80
2022/10/05 09:43:43;;;;;;;6.70;4.32;;;16.00;99.90;;;;;;7393409;19;20785;-81
2022/10/05 09:46:32;;;;;;;7.03;3.97;;;16.10;99.90;;;;;;7395324;19;20604;-80
2022/10/05 09:49:13;;;;;;;6.38;3.75;;;16.20;99.90;;;;;;7393332;19;20198;-81
2022/10/05 09:51:54;;;;;;;6.38;4.00;;;16.30;99.90;;;;;;7394388;19;20223;-80
2022/10/05 09:54:38;;;;;;;5.07;4.10;;;16.50;99.90;;;;;;7397197;19;20150;-81
2022/10/05 09:57:10;;;;;;;8.90;4.50;;;16.60;99.90;;;;;;7404751;19;20143;-81
2022/10/05 09:59:54;;;;;;;8.20;3.97;;;16.70;99.90;;;;;;7403299;19;20611;-80
2022/10/05 10:02:40;;;;;;;4.55;3.45;;;16.80;99.90;;;;;;7400225;19;20143;-81
2022/10/05 10:05:44;;;;;;;6.57;3.53;;;16.90;99.90;;;;;;7404417;19;20190;-81
2022/10/05 10:08:45;;;;;;;4.90;2.97;;;17.00;99.90;;;;;;7403665;19;20138;-79
2022/10/05 10:11:20;;;;;;;4.43;3.35;;;17.20;99.90;;;;;;7401982;19;20129;-79
2022/10/05 10:14:07;;;;;;;5.35;3.60;;;17.40;99.90;;;;;;7401542;19;20170;-80
2022/10/05 10:16:59;;;;;;;9.32;4.40;;;17.40;99.90;;;;;;7399547;19;20185;-80
2022/10/05 10:20:10;;;;;;;5.30;3.38;;;17.60;99.90;;;;;;7403235;19;20134;-80
2022/10/05 10:22:48;;;;;;;5.15;3.50;;;17.70;99.90;;;;;;7399572;19;20146;-80
2022/10/05 10:25:41;;;;;;;3.97;2.95;;;17.80;99.90;;;;;;7401559;19;20562;-80
2022/10/05 10:28:16;;;;;;;5.90;3.20;;;17.90;99.90;;;;;;7398657;19;20177;-78
2022/10/05 10:30:57;;;;;;;6.35;3.45;;;18.10;99.90;;;;;;7401875;19;20209;-78
2022/10/05 10:33:47;;;;;;;5.00;3.50;;;18.20;99.90;;;;;;7399283;19;20190;-80
2022/10/05 10:36:26;;;;;;;4.93;3.00;;;18.30;99.90;;;;;;7404553;19;20194;-79
2022/10/05 10:39:30;;;;;;;4.55;3.15;;;18.30;99.90;;;;;;7398528;19;20138;-79
2022/10/05 10:41:59;;;;;;;4.25;2.70;;;18.40;99.90;;;;;;7396038;19;20146;-79
2022/10/05 10:44:44;;;;;;;4.03;3.30;;;18.40;99.90;;;;;;7395119;19;20588;-81
2022/10/05 10:47:26;;;;;;;8.10;3.83;;;18.50;99.90;;;;;;7395598;19;20147;-80
2022/10/05 10:50:32;;;;;;;6.45;3.72;;;18.60;99.90;;;;;;7397701;19;20161;-77
2022/10/05 10:53:25;;;;;;;3.38;2.45;;;18.70;99.90;;;;;;7397262;19;20688;-80
2022/10/05 10:56:25;;;;;;;3.15;2.15;;;18.90;99.90;;;;;;7397786;19;20151;-79
2022/10/05 10:59:25;;;;;;;4.95;2.60;;;18.90;99.90;;;;;;7398863;19;20145;-79
2022/10/05 11:02:09;;;;;;;5.47;3.75;;;19.00;99.90;;;;;;7394231;19;20154;-80
2022/10/05 11:04:53;;;;;;;2.53;2.05;;;19.20;99.90;;;;;;7397984;19;21714;-80
2022/10/05 11:07:42;;;;;;;4.35;2.50;;;19.30;99.90;;;;;;7397584;19;20143;-80
2022/10/05 11:10:21;;;;;;;3.38;2.22;;;19.40;99.90;;;;;;7396154;19;20818;-80
2022/10/05 11:13:15;;;;;;;1.70;1.45;;;19.50;99.90;;;;;;7400301;19;20603;-81
2022/10/05 11:16:02;;;;;;;3.85;1.30;;;19.70;99.90;;;;;;7397584;19;20138;-81
2022/10/05 11:18:56;;;;;;;9.93;4.15;;;19.90;99.90;;;;;;7396721;19;20210;-81
2022/10/05 11:21:32;;;;;;;3.55;2.53;;;20.10;99.90;;;;;;7395041;19;20165;-82
2022/10/05 11:24:10;;;;;;;1.77;1.23;;;20.40;99.90;;;;;;7397123;19;20142;-80
2022/10/05 11:26:39;;;;;;;3.65;2.10;;;20.60;99.90;;;;;;7397241;19;20146;-81
2022/10/05 11:29:33;;;;;;;1.70;1.50;;;20.80;99.90;;;;;;7398620;19;20145;-83
2022/10/05 11:32:24;;;;;;;7.18;4.03;;;21.00;99.90;;;;;;7399201;19;20227;-80
2022/10/05 11:35:09;;;;;;;2.97;2.53;;;21.10;99.90;;;;;;7396886;19;20131;-81
2022/10/05 11:38:13;;;;;;;1.20;1.10;;;21.20;99.90;;;;;;7396422;19;20142;-80
2022/10/05 11:40:56;;;;;;;2.47;1.92;;;21.40;99.90;;;;;;7397955;19;21079;-81
2022/10/05 11:43:45;;;;;;;1.15;1.05;;;21.40;99.90;;;;;;7397245;19;20135;-81
2022/10/05 11:46:38;;;;;;;1.58;1.10;;;21.50;99.90;;;;;;7396537;19;20238;-81
2022/10/05 11:49:19;;;;;;;1.58;1.30;;;21.60;99.90;;;;;;7395120;19;20623;-80
2022/10/05 11:51:53;;;;;;;8.25;5.72;;;21.60;99.90;;;;;;7399870;19;20135;-81
2022/10/05 11:54:59;;;;;;;4.15;3.00;;;21.60;99.90;;;;;;7397017;19;20145;-81
2022/10/05 11:57:36;;;;;;;2.08;1.00;;;21.70;99.90;;;;;;7395458;19;20130;-81
2022/10/05 12:00:14;;;;;;;3.70;1.20;;;21.70;99.90;;;;;;7397234;19;20148;-81
2022/10/05 12:02:48;;;;;;;4.03;1.30;;;21.90;99.90;;;;;;7393653;19;20154;-81
2022/10/05 12:05:41;;;;;;;1.83;1.25;;;21.90;99.90;;;;;;7394895;19;20595;-80
2022/10/05 12:08:18;;;;;;;3.00;1.50;;;22.00;99.90;;;;;;7398872;19;20754;-79
2022/10/05 12:10:49;;;;;;;3.28;2.17;;;22.00;99.90;;;;;;7395213;19;20150;-80
2022/10/05 12:13:46;;;;;;;3.67;1.63;;;22.00;99.90;;;;;;7393554;19;20143;-80
2022/10/05 12:16:29;;;;;;;1.50;1.30;;;22.10;99.90;;;;;;7395711;19;20135;-80
2022/10/05 12:19:28;;;;;;;2.78;1.65;;;22.20;99.90;;;;;;7395010;19;20157;-80
2022/10/05 12:22:16;;;;;;;8.10;1.40;;;22.30;99.90;;;;;;7392646;19;20146;-79
2022/10/05 12:25:00;;;;;;;1.60;1.50;;;22.40;99.90;;;;;;7394144;19;20158;-80
2022/10/05 12:27:34;;;;;;;1.95;1.20;;;22.40;99.90;;;;;;7395892;19;20134;-79
2022/10/05 12:30:28;;;;;;;2.72;1.27;;;22.50;99.90;;;;;;7393715;19;20205;-80
2022/10/05 12:33:00;;;;;;;1.63;1.10;;;22.60;99.90;;;;;;7394736;19;20131;-79
2022/10/05 12:35:37;;;;;;;1.92;1.10;;;22.60;99.90;;;;;;7395273;19;20135;-80
2022/10/05 12:38:12;;;;;;;2.75;1.15;;;22.70;99.90;;;;;;7391617;19;20173;-81
2022/10/05 12:40:52;;;;;;;2.05;1.20;;;22.80;99.90;;;;;;7394165;19;20146;-79
2022/10/05 12:43:49;;;;;;;1.48;1.15;;;22.90;99.90;;;;;;7393774;19;20138;-80
2022/10/05 12:46:42;;;;;;;1.15;1.05;;;22.90;99.90;;;;;;7393556;19;20141;-80
2022/10/05 12:49:26;;;;;;;1.80;1.13;;;22.90;99.90;;;;;;7393647;19;20157;-80
2022/10/05 12:52:00;;;;;;;1.25;1.05;;;23.00;99.90;;;;;;7395236;19;20156;-80
2022/10/05 12:54:35;;;;;;;2.55;1.50;;;23.00;99.90;;;;;;7395442;19;20142;-81
2022/10/05 12:57:24;;;;;;;2.65;1.38;;;23.10;99.90;;;;;;7393223;19;20221;-79
2022/10/05 13:00:05;;;;;;;1.02;0.80;;;23.00;99.90;;;;;;7392411;19;20567;-80
2022/10/05 13:02:38;;;;;;;1.23;0.98;;;23.10;99.90;;;;;;7392033;19;20761;-79
2022/10/05 13:05:03;;;;;;;1.02;0.80;;;23.10;99.90;;;;;;7396171;19;20142;-80
2022/10/05 13:07:40;;;;;;;1.60;1.15;;;23.20;99.90;;;;;;7394732;19;20157;-80
2022/10/05 13:10:33;;;;;;;1.10;0.70;;;23.20;99.90;;;;;;7393495;19;20171;-80
2022/10/05 13:13:15;;;;;;;0.98;0.80;;;23.20;99.90;;;;;;7394589;19;20172;-81
2022/10/05 13:16:00;;;;;;;1.48;0.75;;;23.20;99.90;;;;;;7393947;19;20155;-82
2022/10/05 13:18:55;;;;;;;0.60;0.60;;;23.20;99.90;;;;;;7391881;19;20167;-80
2022/10/05 13:21:34;;;;;;;0.70;0.50;;;23.20;99.90;;;;;;7395987;19;20498;-80
2022/10/05 13:24:07;;;;;;;2.38;0.80;;;23.30;99.90;;;;;;7394972;19;20155;-79
2022/10/05 13:26:45;;;;;;;0.90;0.70;;;23.30;99.90;;;;;;7392460;19;20138;-80
2022/10/05 13:29:29;;;;;;;1.67;0.80;;;23.30;99.90;;;;;;7397033;19;20205;-81
2022/10/05 13:32:26;;;;;;;1.60;0.73;;;23.30;99.90;;;;;;7400330;19;20575;-81
2022/10/05 13:34:55;;;;;;;1.75;0.63;;;23.30;99.90;;;;;;7399115;19;20206;-81
2022/10/05 13:38:00;;;;;;;1.10;0.80;;;23.30;99.90;;;;;;7400836;19;20220;-81
2022/10/05 13:40:29;;;;;;;0.95;0.70;;;23.30;99.90;;;;;;7399881;19;20146;-80
2022/10/05 13:43:19;;;;;;;2.75;0.80;;;23.30;99.90;;;;;;7396072;19;20153;-80
2022/10/05 13:45:57;;;;;;;0.95;0.70;;;23.30;99.90;;;;;;7401312;19;20161;-80
2022/10/05 13:48:45;;;;;;;1.63;0.75;;;23.30;99.90;;;;;;7400018;19;20265;-81
2022/10/05 13:51:18;;;;;;;0.50;0.50;;;23.40;99.90;;;;;;7398948;19;20139;-80
2022/10/05 13:53:51;;;;;;;2.38;0.70;;;23.40;99.90;;;;;;7401652;19;20172;-81
2022/10/05 13:56:20;;;;;;;1.98;0.85;;;23.30;99.90;;;;;;7400645;19;20142;-80
2022/10/05 13:59:10;;;;;;;1.17;0.70;;;23.30;99.90;;;;;;7401855;19;20131;-80
2022/10/05 14:01:42;;;;;;;0.75;0.47;;;23.40;99.90;;;;;;7400108;19;20134;-81
2022/10/05 14:04:16;;;;;;;1.48;0.68;;;23.50;99.90;;;;;;7399567;19;20155;-81
2022/10/05 14:06:42;;;;;;;3.70;0.65;;;23.40;99.90;;;;;;7398229;19;20225;-80
2022/10/05 14:09:33;;;;;;;0.85;0.60;;;23.50;99.90;;;;;;7398213;19;20150;-81
2022/10/05 14:12:02;;;;;;;0.77;0.73;;;23.50;99.90;;;;;;7398226;19;20159;-81